createdAt,value
2023-05-21T00:01:25.838Z,7.75
2023-05-21T00:03:53.369Z,8.98
2023-05-21T00:10:08.403Z,8.73
2023-05-21T00:12:35.707Z,8.45
2023-05-21T00:15:02.678Z,7.82
2023-05-21T00:17:29.799Z,7.90
2023-05-21T00:19:57.104Z,8.65
2023-05-21T00:22:24.172Z,7.20
2023-05-21T00:24:51.474Z,8.00
2023-05-21T00:27:19.401Z,8.05
2023-05-21T00:29:46.370Z,6.50
2023-05-21T00:32:13.284Z,6.90
2023-05-21T00:34:40.819Z,5.95
2023-05-21T00:37:10.027Z,7.05
2023-05-21T00:39:37.175Z,6.63
2023-05-21T00:42:04.519Z,7.18
2023-05-21T00:44:34.406Z,6.50
2023-05-21T00:47:02.449Z,6.90
2023-05-21T00:49:30.672Z,7.97
2023-05-21T00:51:57.919Z,7.22
2023-05-21T00:54:25.069Z,7.25
2023-05-21T00:56:52.579Z,8.15
2023-05-21T00:59:19.612Z,8.52
2023-05-21T01:01:46.724Z,6.35
2023-05-21T01:04:14.286Z,7.95
2023-05-21T01:06:42.635Z,8.15
2023-05-21T01:09:09.973Z,8.82
2023-05-21T01:11:56.373Z,8.20
2023-05-21T01:14:24.988Z,7.82
2023-05-21T01:16:52.775Z,8.80
2023-05-21T01:19:24.677Z,7.53
2023-05-21T01:22:01.085Z,7.75
2023-05-21T01:24:28.086Z,8.20
2023-05-21T01:26:55.103Z,8.80
2023-05-21T01:29:22.101Z,8.07
2023-05-21T01:32:03.003Z,7.65
2023-05-21T01:35:11.021Z,7.53
2023-05-21T01:37:49.983Z,6.80
2023-05-21T01:40:24.945Z,8.30
2023-05-21T01:42:52.621Z,7.78
2023-05-21T01:45:21.537Z,7.35
2023-05-21T01:47:51.765Z,7.57
2023-05-21T01:50:19.047Z,7.22
2023-05-21T01:52:51.541Z,8.45
2023-05-21T01:55:19.539Z,7.97
2023-05-21T01:57:47.007Z,6.82
2023-05-21T02:00:15.100Z,6.70
2023-05-21T02:02:46.574Z,6.45
2023-05-21T02:05:13.830Z,6.95
2023-05-21T02:07:42.815Z,6.45
2023-05-21T02:10:12.205Z,7.05
2023-05-21T02:12:40.874Z,7.35
2023-05-21T02:15:09.344Z,6.20
2023-05-21T02:17:38.922Z,6.10
2023-05-21T02:20:13.902Z,8.30
2023-05-21T02:22:42.699Z,6.43
2023-05-21T02:25:10.692Z,7.90
2023-05-21T02:27:38.997Z,7.60
2023-05-21T02:30:08.466Z,6.75
2023-05-21T02:32:36.140Z,5.82
2023-05-21T02:35:04.443Z,6.72
2023-05-21T02:37:34.217Z,5.88
2023-05-21T02:40:05.963Z,6.18
2023-05-21T02:42:33.951Z,6.10
2023-05-21T02:45:01.120Z,6.15
2023-05-21T02:47:28.116Z,6.97
2023-05-21T02:49:55.216Z,5.40
2023-05-21T02:52:22.657Z,6.20
2023-05-21T02:54:50.004Z,5.82
2023-05-21T02:57:19.026Z,6.97
2023-05-21T02:59:46.228Z,6.38
2023-05-21T03:02:13.312Z,7.38
2023-05-21T03:04:46.500Z,7.68
2023-05-21T03:07:14.663Z,6.95
2023-05-21T03:09:42.471Z,6.88
2023-05-21T03:12:10.351Z,6.78
2023-05-21T03:14:37.975Z,7.15
2023-05-21T03:17:08.291Z,7.15
2023-05-21T03:19:36.427Z,7.28
2023-05-21T03:22:05.199Z,7.97
2023-05-21T03:24:36.900Z,7.82
2023-05-21T03:27:07.039Z,7.75
2023-05-21T03:29:34.745Z,6.93
2023-05-21T03:32:03.125Z,6.88
2023-05-21T03:34:34.530Z,7.93
2023-05-21T03:37:02.537Z,6.45
2023-05-21T03:39:30.177Z,7.35
2023-05-21T03:41:57.682Z,6.40
2023-05-21T03:44:37.337Z,5.85
2023-05-21T03:47:43.078Z,7.50
2023-05-21T03:50:11.142Z,7.15
2023-05-21T03:52:38.587Z,8.75
2023-05-21T03:55:06.795Z,8.50
2023-05-21T03:57:34.075Z,9.55
2023-05-21T04:00:01.066Z,8.40
2023-05-21T04:02:28.238Z,9.90
2023-05-21T04:04:56.170Z,8.18
2023-05-21T04:07:24.645Z,9.13
2023-05-21T04:09:51.615Z,8.80
2023-05-21T04:12:22.408Z,9.73
2023-05-21T04:14:49.455Z,9.10
2023-05-21T04:17:16.424Z,8.40
2023-05-21T04:19:44.317Z,9.43
2023-05-21T04:22:12.271Z,7.05
2023-05-21T04:24:39.680Z,8.18
2023-05-21T04:27:25.508Z,8.68
2023-05-21T04:29:54.809Z,8.40
2023-05-21T04:32:24.377Z,7.93
2023-05-21T04:34:51.321Z,7.05
2023-05-21T04:37:18.241Z,7.78
2023-05-21T04:39:46.909Z,8.77
2023-05-21T04:42:14.244Z,8.52
2023-05-21T04:44:44.428Z,7.63
2023-05-21T04:47:14.858Z,7.88
2023-05-21T04:49:42.038Z,7.88
2023-05-21T04:52:09.099Z,8.35
2023-05-21T04:54:36.670Z,8.40
2023-05-21T04:57:03.759Z,8.05
2023-05-21T04:59:30.864Z,8.18
2023-05-21T05:01:58.005Z,9.05
2023-05-21T05:04:25.008Z,7.85
2023-05-21T05:06:52.583Z,8.25
2023-05-21T05:09:21.557Z,7.13
2023-05-21T05:11:48.633Z,6.70
2023-05-21T05:14:15.794Z,7.45
2023-05-21T05:16:44.157Z,6.30
2023-05-21T05:19:11.255Z,8.57
2023-05-21T05:21:38.251Z,9.18
2023-05-21T05:24:05.746Z,8.07
2023-05-21T05:26:32.892Z,6.03
2023-05-21T05:29:00.390Z,6.93
2023-05-21T05:31:27.523Z,7.22
2023-05-21T05:33:54.966Z,8.93
2023-05-21T05:36:24.284Z,8.40
2023-05-21T05:38:52.557Z,8.55
2023-05-21T05:41:19.522Z,8.35
2023-05-21T05:43:48.001Z,8.40
2023-05-21T05:46:16.732Z,7.88
2023-05-21T05:48:43.885Z,7.53
2023-05-21T05:51:12.045Z,9.05
2023-05-21T05:53:39.027Z,8.50
2023-05-21T05:56:06.508Z,8.57
2023-05-21T05:58:33.672Z,7.43
2023-05-21T06:01:12.065Z,8.65
2023-05-21T06:03:39.812Z,6.97
2023-05-21T06:06:12.128Z,8.82
2023-05-21T06:08:40.532Z,9.45
2023-05-21T06:11:07.668Z,9.23
2023-05-21T06:13:34.649Z,7.90
2023-05-21T06:16:03.638Z,8.70
2023-05-21T06:18:30.841Z,8.25
2023-05-21T06:20:57.837Z,8.77
2023-05-21T06:23:25.238Z,10.00
2023-05-21T06:25:52.461Z,9.40
2023-05-21T06:28:20.195Z,8.90
2023-05-21T06:30:48.790Z,9.40
2023-05-21T06:33:16.614Z,9.48
2023-05-21T06:35:44.493Z,8.68
2023-05-21T06:38:12.065Z,8.85
2023-05-21T06:40:39.054Z,9.88
2023-05-21T06:43:08.969Z,9.02
2023-05-21T06:46:11.016Z,9.43
2023-05-21T06:48:40.090Z,8.40
2023-05-21T06:51:07.942Z,9.93
2023-05-21T06:53:35.494Z,10.32
2023-05-21T06:56:05.299Z,9.45
2023-05-21T07:01:24.827Z,9.48
2023-05-21T07:03:52.445Z,9.57
2023-05-21T07:06:28.012Z,8.35
2023-05-21T07:08:58.624Z,8.40
2023-05-21T07:11:28.852Z,9.43
2023-05-21T07:14:12.885Z,9.32
2023-05-21T07:17:03.527Z,8.45
2023-05-21T07:19:30.859Z,9.27
2023-05-21T07:21:59.678Z,9.52
2023-05-21T07:24:33.116Z,9.00
2023-05-21T07:27:08.855Z,9.10
2023-05-21T07:30:36.893Z,8.38
2023-05-21T07:33:10.307Z,9.40
2023-05-21T07:35:37.624Z,8.85
2023-05-21T07:38:04.978Z,7.55
2023-05-21T07:40:35.958Z,8.70
2023-05-21T07:43:07.466Z,7.45
2023-05-21T07:45:36.393Z,8.05
2023-05-21T07:48:05.272Z,7.72
2023-05-21T07:50:34.797Z,7.82
2023-05-21T07:53:06.485Z,8.43
2023-05-21T07:55:53.253Z,7.93
2023-05-21T07:58:41.953Z,9.20
2023-05-21T08:01:17.270Z,8.95
2023-05-21T08:03:53.549Z,7.47
2023-05-21T08:06:28.571Z,8.15
2023-05-21T08:08:56.414Z,8.65
2023-05-21T08:11:24.397Z,7.93
2023-05-21T08:13:51.635Z,8.30
2023-05-21T08:16:18.993Z,7.85
2023-05-21T08:18:46.253Z,7.95
2023-05-21T08:21:13.800Z,7.18
2023-05-21T08:23:41.157Z,7.88
2023-05-21T08:26:08.695Z,7.78
2023-05-21T08:28:39.173Z,7.05
2023-05-21T08:31:06.447Z,7.85
2023-05-21T08:33:38.391Z,7.28
2023-05-21T08:36:07.593Z,7.90
2023-05-21T08:38:41.674Z,7.80
2023-05-21T08:41:14.186Z,7.03
2023-05-21T08:43:46.814Z,7.63
2023-05-21T08:46:19.014Z,8.98
2023-05-21T08:49:04.472Z,7.70
2023-05-21T08:51:33.247Z,7.90
2023-05-21T08:54:02.786Z,8.10
2023-05-21T08:56:34.353Z,7.22
2023-05-21T08:59:03.361Z,7.45
2023-05-21T09:01:35.669Z,6.45
2023-05-21T09:04:24.880Z,7.80
2023-05-21T09:06:58.038Z,7.15
2023-05-21T09:09:54.992Z,7.20
2023-05-21T09:12:22.504Z,7.10
2023-05-21T09:14:50.193Z,6.90
2023-05-21T09:17:20.592Z,5.45
2023-05-21T09:20:13.604Z,7.07
2023-05-21T09:22:49.283Z,7.57
2023-05-21T09:25:21.904Z,6.38
2023-05-21T09:27:49.734Z,7.30
2023-05-21T09:30:23.718Z,6.03
2023-05-21T09:32:56.638Z,6.60
2023-05-21T09:35:24.572Z,6.80
2023-05-21T09:37:53.487Z,6.70
2023-05-21T09:40:28.615Z,6.43
2023-05-21T09:42:56.421Z,6.32
2023-05-21T09:45:29.481Z,5.95
2023-05-21T09:47:59.386Z,5.97
2023-05-21T09:50:30.132Z,5.63
2023-05-21T09:52:58.263Z,5.55
2023-05-21T09:55:28.672Z,6.82
2023-05-21T09:57:58.915Z,5.82
2023-05-21T10:00:30.004Z,5.30
2023-05-21T10:03:14.717Z,6.10
2023-05-21T10:05:42.937Z,5.22
2023-05-21T10:08:12.686Z,5.55
2023-05-21T10:10:42.433Z,5.85
2023-05-21T10:13:12.661Z,5.75
2023-05-21T10:15:44.768Z,5.30
2023-05-21T10:18:13.851Z,5.25
2023-05-21T10:20:41.956Z,5.22
2023-05-21T10:23:10.097Z,5.30
2023-05-21T10:25:37.942Z,5.25
2023-05-21T10:28:07.551Z,5.97
2023-05-21T10:30:39.697Z,5.20
2023-05-21T10:33:12.379Z,5.22
2023-05-21T10:35:41.297Z,4.97
2023-05-21T10:38:11.253Z,4.72
2023-05-21T10:40:38.892Z,4.60
2023-05-21T10:43:25.008Z,5.03
2023-05-21T10:46:39.888Z,4.88
2023-05-21T10:49:44.586Z,4.40
2023-05-21T10:55:20.279Z,5.38
2023-05-21T10:58:03.672Z,4.75
2023-05-21T11:00:34.284Z,4.60
2023-05-21T11:03:04.574Z,5.20
2023-05-21T11:05:40.710Z,5.35
2023-05-21T11:08:23.094Z,4.78
2023-05-21T11:11:00.091Z,4.97
2023-05-21T11:13:28.810Z,4.80
2023-05-21T11:16:01.052Z,4.72
2023-05-21T11:18:34.571Z,4.50
2023-05-21T11:21:19.061Z,3.78
2023-05-21T11:23:52.260Z,5.43
2023-05-21T11:26:28.037Z,5.30
2023-05-21T11:29:08.566Z,4.85
2023-05-21T11:31:40.095Z,5.28
2023-05-21T11:34:29.722Z,5.30
2023-05-21T11:37:18.736Z,4.63
2023-05-21T11:39:50.704Z,4.95
2023-05-21T11:42:39.999Z,4.85
2023-05-21T11:45:08.234Z,5.68
2023-05-21T11:47:36.462Z,5.88
2023-05-21T11:50:04.721Z,5.28
2023-05-21T11:52:33.307Z,6.10
2023-05-21T11:55:05.712Z,4.93
2023-05-21T11:57:33.223Z,4.82
2023-05-21T12:00:08.837Z,4.93
2023-05-21T12:02:47.733Z,5.20
2023-05-21T12:05:15.533Z,4.80
2023-05-21T12:07:46.189Z,5.45
2023-05-21T12:10:13.761Z,4.32
2023-05-21T12:12:54.077Z,4.80
2023-05-21T12:15:26.652Z,5.03
2023-05-21T12:17:55.140Z,4.93
2023-05-21T12:20:24.239Z,5.18
2023-05-21T12:22:51.837Z,5.32
2023-05-21T12:25:22.580Z,5.15
2023-05-21T12:27:57.900Z,5.43
2023-05-21T12:30:27.676Z,5.50
2023-05-21T12:32:58.450Z,5.25
2023-05-21T12:35:25.781Z,5.70
2023-05-21T12:37:53.258Z,5.60
2023-05-21T12:40:21.107Z,4.90
2023-05-21T12:42:49.788Z,4.45
2023-05-21T12:45:19.158Z,5.28
2023-05-21T12:47:50.764Z,5.10
2023-05-21T12:50:22.631Z,5.82
2023-05-21T12:52:57.176Z,5.50
2023-05-21T12:55:27.899Z,5.50
2023-05-21T12:58:15.805Z,5.47
2023-05-21T13:00:46.228Z,5.57
2023-05-21T13:03:24.105Z,5.43
2023-05-21T13:06:01.587Z,5.75
2023-05-21T13:08:29.346Z,5.57
2023-05-21T13:10:56.398Z,4.93
2023-05-21T13:13:27.776Z,4.57
2023-05-21T13:15:55.695Z,5.45
2023-05-21T13:18:23.242Z,5.45
2023-05-21T13:20:51.710Z,5.13
2023-05-21T13:23:18.819Z,5.18
2023-05-21T13:25:46.032Z,4.80
2023-05-21T13:28:15.510Z,6.03
2023-05-21T13:30:42.779Z,5.15
2023-05-21T13:33:10.190Z,4.50
2023-05-21T13:35:38.061Z,4.00
2023-05-21T13:38:06.615Z,4.28
2023-05-21T13:40:33.824Z,4.63
2023-05-21T13:43:02.093Z,5.60
2023-05-21T13:45:31.107Z,5.20
2023-05-21T13:47:58.574Z,5.13
2023-05-21T13:50:26.139Z,5.25
2023-05-21T13:52:53.581Z,5.13
2023-05-21T13:55:20.985Z,5.38
2023-05-21T13:57:48.288Z,6.32
2023-05-21T14:00:20.705Z,5.25
2023-05-21T14:02:56.798Z,5.15
2023-05-21T14:05:24.286Z,5.67
2023-05-21T14:07:52.031Z,5.55
2023-05-21T14:10:24.904Z,4.95
2023-05-21T14:12:59.209Z,4.40
2023-05-21T14:15:38.000Z,5.45
2023-05-21T14:20:36.768Z,5.10
2023-05-21T14:23:04.266Z,4.63
2023-05-21T14:25:31.966Z,4.47
2023-05-21T14:27:58.848Z,5.18
2023-05-21T14:30:26.459Z,4.50
2023-05-21T14:32:54.283Z,4.32
2023-05-21T14:35:22.950Z,5.07
2023-05-21T14:38:05.474Z,5.10
2023-05-21T14:40:33.109Z,4.70
2023-05-21T14:43:00.809Z,5.65
2023-05-21T14:45:31.162Z,5.80
2023-05-21T14:47:58.807Z,4.80
2023-05-21T14:50:26.244Z,5.70
2023-05-21T14:52:55.022Z,5.60
2023-05-21T14:55:23.073Z,5.75
2023-05-21T14:57:50.420Z,5.30
2023-05-21T15:00:18.009Z,5.10
2023-05-21T15:02:45.607Z,6.22
2023-05-21T15:05:28.667Z,5.07
2023-05-21T15:08:01.609Z,5.05
2023-05-21T15:10:43.196Z,5.88
2023-05-21T15:13:10.543Z,5.10
2023-05-21T15:15:52.302Z,5.47
2023-05-21T15:18:25.075Z,5.45
2023-05-21T15:20:56.043Z,5.57
2023-05-21T15:23:23.860Z,6.45
2023-05-21T15:25:51.524Z,6.28
2023-05-21T15:28:18.812Z,6.10
2023-05-21T15:30:45.914Z,5.28
2023-05-21T15:33:13.108Z,5.63
2023-05-21T15:35:40.911Z,5.95
2023-05-21T15:38:08.632Z,6.18
2023-05-21T15:40:41.351Z,4.60
2023-05-21T15:43:08.846Z,5.82
2023-05-21T15:45:36.223Z,5.57
2023-05-21T15:48:03.906Z,5.40
2023-05-21T15:50:31.513Z,5.85
2023-05-21T15:52:58.575Z,5.25
2023-05-21T15:55:25.808Z,4.70
2023-05-21T15:57:53.149Z,4.95
2023-05-21T16:00:20.718Z,4.80
2023-05-21T16:02:50.887Z,3.88
2023-05-21T16:05:19.089Z,4.22
2023-05-21T16:07:48.843Z,4.90
2023-05-21T16:10:22.147Z,5.28
2023-05-21T16:12:54.884Z,4.30
2023-05-21T16:16:16.464Z,4.88
2023-05-21T16:18:49.267Z,4.55
2023-05-21T16:21:22.194Z,5.18
2023-05-21T16:23:55.178Z,3.72
2023-05-21T16:26:23.016Z,4.47
2023-05-21T16:28:51.165Z,4.55
2023-05-21T16:31:18.969Z,4.82
2023-05-21T16:33:46.765Z,4.40
2023-05-21T16:36:15.454Z,4.22
2023-05-21T16:38:45.015Z,4.20
2023-05-21T16:41:13.352Z,3.92
2023-05-21T16:43:41.032Z,4.57
2023-05-21T16:46:11.723Z,4.00
2023-05-21T16:48:40.146Z,3.83
2023-05-21T16:51:08.626Z,4.25
2023-05-21T16:53:38.540Z,4.65
2023-05-21T16:56:06.147Z,3.90
2023-05-21T16:58:33.557Z,3.42
2023-05-21T17:01:04.734Z,4.30
2023-05-21T17:03:35.686Z,3.83
2023-05-21T17:06:03.583Z,3.35
2023-05-21T17:08:35.776Z,3.22
2023-05-21T17:11:03.163Z,3.10
2023-05-21T17:13:31.162Z,3.30
2023-05-21T17:15:58.826Z,3.80
2023-05-21T17:18:26.323Z,3.85
2023-05-21T17:20:56.078Z,4.40
2023-05-21T17:23:24.785Z,3.70
2023-05-21T17:25:52.759Z,4.28
2023-05-21T17:28:22.459Z,4.57
2023-05-21T17:30:53.159Z,3.90
2023-05-21T17:33:21.677Z,3.80
2023-05-21T17:35:49.033Z,5.35
2023-05-21T17:38:16.680Z,5.18
2023-05-21T17:40:48.983Z,5.22
2023-05-21T17:43:16.725Z,4.25
2023-05-21T17:45:44.101Z,4.70
2023-05-21T17:48:14.799Z,4.32
2023-05-21T17:50:42.351Z,4.28
2023-05-21T17:53:09.771Z,4.32
2023-05-21T17:55:37.176Z,3.75
2023-05-21T17:58:05.720Z,4.32
2023-05-21T18:00:33.334Z,4.10
2023-05-21T18:03:01.480Z,3.97
2023-05-21T18:05:28.892Z,4.80
2023-05-21T18:08:04.272Z,4.03
2023-05-21T18:10:31.989Z,3.88
2023-05-21T18:13:05.527Z,4.20
2023-05-21T18:15:40.025Z,3.92
2023-05-21T18:18:08.624Z,4.85
2023-05-21T18:20:38.924Z,4.28
2023-05-21T18:23:12.828Z,4.18
2023-05-21T18:25:41.250Z,3.80
2023-05-21T18:28:18.833Z,3.30
2023-05-21T18:30:46.977Z,3.38
2023-05-21T18:33:15.685Z,3.17
2023-05-21T18:35:49.988Z,3.72
2023-05-21T18:38:18.806Z,4.05
2023-05-21T18:40:46.447Z,3.80
2023-05-21T18:43:14.369Z,4.20
2023-05-21T18:45:41.501Z,3.63
2023-05-21T18:48:08.891Z,4.10
2023-05-21T18:50:39.853Z,4.30
2023-05-21T18:53:07.343Z,3.80
2023-05-21T18:55:35.383Z,4.03
2023-05-21T18:58:03.849Z,4.15
2023-05-21T19:00:52.978Z,3.53
2023-05-21T19:03:27.634Z,3.78
2023-05-21T19:05:56.451Z,3.65
2023-05-21T19:08:28.393Z,3.55
2023-05-21T19:11:05.379Z,3.22
2023-05-21T19:13:38.962Z,3.80
2023-05-21T19:16:11.181Z,4.03
2023-05-21T19:18:40.660Z,3.30
2023-05-21T19:21:09.737Z,3.50
2023-05-21T19:23:51.707Z,3.65
2023-05-21T19:26:21.550Z,3.88
2023-05-21T19:28:53.013Z,3.40
2023-05-21T19:31:21.146Z,3.33
2023-05-21T19:33:48.397Z,2.90
2023-05-21T19:36:18.801Z,2.72
2023-05-21T19:38:48.973Z,3.00
2023-05-21T19:41:16.646Z,3.05
2023-05-21T19:43:46.690Z,3.08
2023-05-21T19:46:20.410Z,3.10
2023-05-21T19:48:48.057Z,3.10
2023-05-21T19:51:15.068Z,3.10
2023-05-21T19:53:42.009Z,3.15
2023-05-21T19:56:08.897Z,3.15
2023-05-21T19:58:36.012Z,3.20
2023-05-21T20:01:03.604Z,3.15
2023-05-21T20:03:35.966Z,3.60
2023-05-21T20:06:03.339Z,4.10
2023-05-21T20:08:30.554Z,4.10
2023-05-21T20:10:57.551Z,3.80
2023-05-21T20:13:24.918Z,3.17
2023-05-21T20:15:51.903Z,3.63
2023-05-21T20:18:22.011Z,3.80
2023-05-21T20:20:49.265Z,3.58
2023-05-21T20:23:16.318Z,4.90
2023-05-21T20:25:43.433Z,4.80
2023-05-21T20:28:10.589Z,4.43
2023-05-21T20:30:58.063Z,4.10
2023-05-21T20:33:27.204Z,3.75
2023-05-21T20:35:54.179Z,3.33
2023-05-21T20:38:21.218Z,4.40
2023-05-21T20:40:48.518Z,3.63
2023-05-21T20:43:15.523Z,4.18
2023-05-21T20:45:43.638Z,4.10
2023-05-21T20:48:12.006Z,4.45
2023-05-21T20:50:40.951Z,4.40
2023-05-21T20:53:08.594Z,4.97
2023-05-21T20:55:35.592Z,4.55
2023-05-21T20:58:06.208Z,4.90
2023-05-21T21:00:33.448Z,4.30
2023-05-21T21:03:03.925Z,4.70
2023-05-21T21:05:31.410Z,4.30
2023-05-21T21:08:02.404Z,4.93
2023-05-21T21:10:29.530Z,4.70
2023-05-21T21:12:56.540Z,4.35
2023-05-21T21:15:23.519Z,4.22
2023-05-21T21:17:50.608Z,4.20
2023-05-21T21:20:19.360Z,4.28
2023-05-21T21:22:46.499Z,4.55
2023-05-21T21:25:16.991Z,4.30
2023-05-21T21:27:43.936Z,3.83
2023-05-21T21:30:11.275Z,4.70
2023-05-21T21:32:38.280Z,4.22
2023-05-21T21:35:05.913Z,3.80
2023-05-21T21:37:32.996Z,3.53
2023-05-21T21:39:59.949Z,4.10
2023-05-21T21:42:26.980Z,4.05
2023-05-21T21:44:53.891Z,4.20
2023-05-21T21:47:20.872Z,4.07
2023-05-21T21:49:48.196Z,3.97
2023-05-21T21:52:15.281Z,4.00
2023-05-21T21:54:42.205Z,4.28
2023-05-21T21:57:09.159Z,4.68
2023-05-21T21:59:38.797Z,4.40
2023-05-21T22:02:06.210Z,5.60
2023-05-21T22:04:33.268Z,5.15
2023-05-21T22:07:01.751Z,5.35
2023-05-21T22:09:28.922Z,4.80
2023-05-21T22:11:56.542Z,5.20
2023-05-21T22:14:23.996Z,4.47
2023-05-21T22:16:53.149Z,3.67
2023-05-21T22:19:22.164Z,3.67
2023-05-21T22:21:49.349Z,3.75
2023-05-21T22:24:30.873Z,3.50
2023-05-21T22:26:59.196Z,3.38
2023-05-21T22:29:26.227Z,3.33
2023-05-21T22:31:53.213Z,3.22
2023-05-21T22:34:20.830Z,3.13
2023-05-21T22:36:47.847Z,3.20
2023-05-21T22:39:14.783Z,3.55
2023-05-21T22:41:42.157Z,3.28
2023-05-21T22:44:09.222Z,3.22
2023-05-21T22:46:36.241Z,2.97
2023-05-21T22:49:03.369Z,3.13
2023-05-21T22:51:34.731Z,3.60
2023-05-21T22:54:02.185Z,2.92
2023-05-21T22:56:29.384Z,2.97
2023-05-21T22:58:56.918Z,2.90
2023-05-21T23:01:24.054Z,3.30
2023-05-21T23:03:51.526Z,3.35
2023-05-21T23:06:18.637Z,3.42
2023-05-21T23:08:45.907Z,3.35
2023-05-21T23:11:12.854Z,3.05
2023-05-21T23:13:39.844Z,3.50
2023-05-21T23:16:07.467Z,3.30
2023-05-21T23:18:35.531Z,3.20
2023-05-21T23:21:02.730Z,3.22
2023-05-21T23:23:29.844Z,3.28
2023-05-21T23:25:58.778Z,3.20
2023-05-21T23:28:26.596Z,3.00
2023-05-21T23:30:53.668Z,3.55
2023-05-21T23:33:20.889Z,3.45
2023-05-21T23:35:47.954Z,3.15
2023-05-21T23:38:15.021Z,3.47
2023-05-21T23:40:42.317Z,3.58
2023-05-21T23:43:09.268Z,3.40
2023-05-21T23:45:37.133Z,3.25
2023-05-21T23:48:04.524Z,3.13
2023-05-21T23:50:31.537Z,3.13
2023-05-21T23:52:59.228Z,3.40
2023-05-21T23:55:26.162Z,3.20
2023-05-21T23:57:53.063Z,3.33
